sensor_id;sensor_type;location;lat;lon;timestamp;P1;durP1;ratioP1;P2;durP2;ratioP2
15412;SDS011;7805;49.554;7.632;2023-06-14T00:00:40;4.80;;;4.43;;
15412;SDS011;7805;49.554;7.632;2023-06-14T00:03:08;7.40;;;5.33;;
15412;SDS011;7805;49.554;7.632;2023-06-14T00:05:36;5.10;;;4.70;;
15412;SDS011;7805;49.554;7.632;2023-06-14T00:08:06;6.83;;;4.70;;
15412;SDS011;7805;49.554;7.632;2023-06-14T00:10:33;4.67;;;4.37;;
15412;SDS011;7805;49.554;7.632;2023-06-14T00:13:00;5.10;;;4.70;;
15412;SDS011;7805;49.554;7.632;2023-06-14T00:15:26;5.17;;;4.63;;
15412;SDS011;7805;49.554;7.632;2023-06-14T00:17:53;5.23;;;4.73;;
15412;SDS011;7805;49.554;7.632;2023-06-14T00:20:19;5.40;;;4.90;;
15412;SDS011;7805;49.554;7.632;2023-06-14T00:22:45;6.80;;;5.10;;
15412;SDS011;7805;49.554;7.632;2023-06-14T00:25:11;5.20;;;4.80;;
15412;SDS011;7805;49.554;7.632;2023-06-14T00:27:37;5.50;;;5.00;;
15412;SDS011;7805;49.554;7.632;2023-06-14T00:30:02;5.73;;;5.00;;
15412;SDS011;7805;49.554;7.632;2023-06-14T00:32:28;5.50;;;5.03;;
15412;SDS011;7805;49.554;7.632;2023-06-14T00:34:54;5.37;;;4.97;;
15412;SDS011;7805;49.554;7.632;2023-06-14T00:37:20;6.13;;;4.73;;
15412;SDS011;7805;49.554;7.632;2023-06-14T00:39:47;5.60;;;5.00;;
15412;SDS011;7805;49.554;7.632;2023-06-14T00:42:22;5.30;;;4.80;;
15412;SDS011;7805;49.554;7.632;2023-06-14T00:44:52;7.23;;;5.00;;
15412;SDS011;7805;49.554;7.632;2023-06-14T00:47:18;5.83;;;5.33;;
15412;SDS011;7805;49.554;7.632;2023-06-14T00:49:45;5.20;;;4.70;;
15412;SDS011;7805;49.554;7.632;2023-06-14T00:52:20;5.10;;;4.70;;
15412;SDS011;7805;49.554;7.632;2023-06-14T00:54:47;5.00;;;4.53;;
15412;SDS011;7805;49.554;7.632;2023-06-14T00:57:13;8.13;;;5.10;;
15412;SDS011;7805;49.554;7.632;2023-06-14T00:59:42;5.80;;;4.87;;
15412;SDS011;7805;49.554;7.632;2023-06-14T01:02:10;5.60;;;4.70;;
15412;SDS011;7805;49.554;7.632;2023-06-14T01:04:36;5.10;;;4.80;;
15412;SDS011;7805;49.554;7.632;2023-06-14T01:07:54;5.70;;;5.20;;
15412;SDS011;7805;49.554;7.632;2023-06-14T01:15:07;6.70;;;5.27;;
15412;SDS011;7805;49.554;7.632;2023-06-14T01:17:33;5.40;;;4.90;;
15412;SDS011;7805;49.554;7.632;2023-06-14T01:20:02;5.33;;;4.83;;
15412;SDS011;7805;49.554;7.632;2023-06-14T01:22:32;5.57;;;4.73;;
15412;SDS011;7805;49.554;7.632;2023-06-14T01:24:57;9.60;;;5.57;;
15412;SDS011;7805;49.554;7.632;2023-06-14T01:27:23;5.33;;;4.83;;
15412;SDS011;7805;49.554;7.632;2023-06-14T01:29:53;5.93;;;5.43;;
15412;SDS011;7805;49.554;7.632;2023-06-14T01:32:21;5.87;;;5.30;;
15412;SDS011;7805;49.554;7.632;2023-06-14T01:34:51;4.77;;;4.37;;
15412;SDS011;7805;49.554;7.632;2023-06-14T01:37:20;5.27;;;4.80;;
15412;SDS011;7805;49.554;7.632;2023-06-14T01:39:47;7.90;;;4.77;;
15412;SDS011;7805;49.554;7.632;2023-06-14T01:42:14;5.60;;;5.00;;
15412;SDS011;7805;49.554;7.632;2023-06-14T01:44:41;5.70;;;5.20;;
15412;SDS011;7805;49.554;7.632;2023-06-14T01:47:08;5.60;;;5.20;;
15412;SDS011;7805;49.554;7.632;2023-06-14T01:49:34;6.00;;;5.43;;
15412;SDS011;7805;49.554;7.632;2023-06-14T01:52:00;5.47;;;5.07;;
15412;SDS011;7805;49.554;7.632;2023-06-14T01:54:26;5.17;;;4.73;;
15412;SDS011;7805;49.554;7.632;2023-06-14T01:56:52;6.03;;;5.57;;
15412;SDS011;7805;49.554;7.632;2023-06-14T01:59:18;5.70;;;5.17;;
15412;SDS011;7805;49.554;7.632;2023-06-14T02:01:44;6.13;;;5.47;;
15412;SDS011;7805;49.554;7.632;2023-06-14T02:04:11;5.90;;;4.63;;
15412;SDS011;7805;49.554;7.632;2023-06-14T02:06:36;6.73;;;5.43;;
15412;SDS011;7805;49.554;7.632;2023-06-14T02:09:02;6.80;;;5.30;;
15412;SDS011;7805;49.554;7.632;2023-06-14T02:11:28;6.73;;;5.47;;
15412;SDS011;7805;49.554;7.632;2023-06-14T02:13:54;5.83;;;5.30;;
15412;SDS011;7805;49.554;7.632;2023-06-14T02:16:20;5.57;;;5.17;;
15412;SDS011;7805;49.554;7.632;2023-06-14T02:18:47;6.23;;;5.33;;
15412;SDS011;7805;49.554;7.632;2023-06-14T02:21:13;9.97;;;6.00;;
15412;SDS011;7805;49.554;7.632;2023-06-14T02:23:39;5.30;;;4.90;;
15412;SDS011;7805;49.554;7.632;2023-06-14T02:26:05;6.33;;;5.70;;
15412;SDS011;7805;49.554;7.632;2023-06-14T02:28:30;6.97;;;6.00;;
15412;SDS011;7805;49.554;7.632;2023-06-14T02:30:56;7.60;;;5.70;;
15412;SDS011;7805;49.554;7.632;2023-06-14T02:33:21;5.73;;;5.10;;
15412;SDS011;7805;49.554;7.632;2023-06-14T02:35:47;6.00;;;5.40;;
15412;SDS011;7805;49.554;7.632;2023-06-14T02:38:13;5.83;;;5.23;;
15412;SDS011;7805;49.554;7.632;2023-06-14T02:40:38;5.80;;;5.30;;
15412;SDS011;7805;49.554;7.632;2023-06-14T02:43:05;6.03;;;5.43;;
15412;SDS011;7805;49.554;7.632;2023-06-14T02:45:31;6.17;;;5.67;;
15412;SDS011;7805;49.554;7.632;2023-06-14T02:47:56;6.57;;;6.00;;
15412;SDS011;7805;49.554;7.632;2023-06-14T02:50:22;5.97;;;5.37;;
15412;SDS011;7805;49.554;7.632;2023-06-14T02:52:48;6.23;;;5.73;;
15412;SDS011;7805;49.554;7.632;2023-06-14T02:55:14;5.97;;;5.47;;
15412;SDS011;7805;49.554;7.632;2023-06-14T02:57:40;6.10;;;5.50;;
15412;SDS011;7805;49.554;7.632;2023-06-14T03:00:05;7.67;;;5.50;;
15412;SDS011;7805;49.554;7.632;2023-06-14T03:02:35;6.00;;;5.50;;
15412;SDS011;7805;49.554;7.632;2023-06-14T03:05:00;5.57;;;5.03;;
15412;SDS011;7805;49.554;7.632;2023-06-14T03:07:27;6.37;;;5.80;;
15412;SDS011;7805;49.554;7.632;2023-06-14T03:09:54;6.03;;;5.53;;
15412;SDS011;7805;49.554;7.632;2023-06-14T03:12:20;7.50;;;5.33;;
15412;SDS011;7805;49.554;7.632;2023-06-14T03:14:46;5.97;;;5.37;;
15412;SDS011;7805;49.554;7.632;2023-06-14T03:17:11;6.23;;;5.70;;
15412;SDS011;7805;49.554;7.632;2023-06-14T03:19:37;10.23;;;5.80;;
15412;SDS011;7805;49.554;7.632;2023-06-14T03:22:03;5.80;;;5.23;;
15412;SDS011;7805;49.554;7.632;2023-06-14T03:24:28;6.03;;;5.47;;
15412;SDS011;7805;49.554;7.632;2023-06-14T03:26:54;5.67;;;5.17;;
15412;SDS011;7805;49.554;7.632;2023-06-14T03:29:20;6.33;;;5.70;;
15412;SDS011;7805;49.554;7.632;2023-06-14T03:32:02;6.50;;;5.80;;
15412;SDS011;7805;49.554;7.632;2023-06-14T03:34:28;6.67;;;5.63;;
15412;SDS011;7805;49.554;7.632;2023-06-14T03:36:53;6.07;;;5.57;;
15412;SDS011;7805;49.554;7.632;2023-06-14T03:39:19;8.53;;;5.80;;
15412;SDS011;7805;49.554;7.632;2023-06-14T03:41:45;5.87;;;5.37;;
15412;SDS011;7805;49.554;7.632;2023-06-14T03:44:11;6.17;;;5.57;;
15412;SDS011;7805;49.554;7.632;2023-06-14T03:46:36;5.83;;;5.40;;
15412;SDS011;7805;49.554;7.632;2023-06-14T03:49:02;6.83;;;5.67;;
15412;SDS011;7805;49.554;7.632;2023-06-14T03:51:28;6.30;;;5.67;;
15412;SDS011;7805;49.554;7.632;2023-06-14T03:53:54;6.70;;;6.10;;
15412;SDS011;7805;49.554;7.632;2023-06-14T03:56:20;6.50;;;6.00;;
15412;SDS011;7805;49.554;7.632;2023-06-14T03:58:46;5.77;;;5.17;;
15412;SDS011;7805;49.554;7.632;2023-06-14T04:01:12;8.40;;;6.43;;
15412;SDS011;7805;49.554;7.632;2023-06-14T04:03:37;6.07;;;5.43;;
15412;SDS011;7805;49.554;7.632;2023-06-14T04:06:05;5.70;;;5.30;;
15412;SDS011;7805;49.554;7.632;2023-06-14T04:08:31;7.50;;;6.03;;
15412;SDS011;7805;49.554;7.632;2023-06-14T04:10:57;6.13;;;5.53;;
15412;SDS011;7805;49.554;7.632;2023-06-14T04:13:22;6.47;;;5.30;;
15412;SDS011;7805;49.554;7.632;2023-06-14T04:15:48;5.80;;;5.27;;
15412;SDS011;7805;49.554;7.632;2023-06-14T04:18:13;6.63;;;6.03;;
15412;SDS011;7805;49.554;7.632;2023-06-14T04:20:39;6.10;;;5.60;;
15412;SDS011;7805;49.554;7.632;2023-06-14T04:23:12;6.30;;;5.80;;
15412;SDS011;7805;49.554;7.632;2023-06-14T04:25:38;6.27;;;5.67;;
15412;SDS011;7805;49.554;7.632;2023-06-14T04:28:05;9.87;;;5.97;;
15412;SDS011;7805;49.554;7.632;2023-06-14T04:30:30;6.37;;;5.37;;
15412;SDS011;7805;49.554;7.632;2023-06-14T04:32:56;6.63;;;6.03;;
15412;SDS011;7805;49.554;7.632;2023-06-14T04:35:22;7.40;;;6.13;;
15412;SDS011;7805;49.554;7.632;2023-06-14T04:37:52;6.53;;;5.93;;
15412;SDS011;7805;49.554;7.632;2023-06-14T04:40:18;7.90;;;6.20;;
15412;SDS011;7805;49.554;7.632;2023-06-14T04:42:44;6.50;;;5.90;;
15412;SDS011;7805;49.554;7.632;2023-06-14T04:45:11;6.17;;;5.67;;
15412;SDS011;7805;49.554;7.632;2023-06-14T04:47:37;6.90;;;6.17;;
15412;SDS011;7805;49.554;7.632;2023-06-14T04:50:04;6.47;;;5.83;;
15412;SDS011;7805;49.554;7.632;2023-06-14T04:52:30;6.77;;;5.40;;
15412;SDS011;7805;49.554;7.632;2023-06-14T04:54:56;7.90;;;6.37;;
15412;SDS011;7805;49.554;7.632;2023-06-14T04:57:22;7.27;;;5.50;;
15412;SDS011;7805;49.554;7.632;2023-06-14T04:59:50;8.93;;;5.97;;
15412;SDS011;7805;49.554;7.632;2023-06-14T05:02:20;6.63;;;6.03;;
15412;SDS011;7805;49.554;7.632;2023-06-14T05:04:47;6.30;;;5.80;;
15412;SDS011;7805;49.554;7.632;2023-06-14T05:07:13;8.40;;;6.17;;
15412;SDS011;7805;49.554;7.632;2023-06-14T05:09:39;6.47;;;5.77;;
15412;SDS011;7805;49.554;7.632;2023-06-14T05:12:05;6.63;;;5.93;;
15412;SDS011;7805;49.554;7.632;2023-06-14T05:14:32;6.47;;;5.70;;
15412;SDS011;7805;49.554;7.632;2023-06-14T05:16:58;8.30;;;6.10;;
15412;SDS011;7805;49.554;7.632;2023-06-14T05:19:24;8.70;;;6.63;;
15412;SDS011;7805;49.554;7.632;2023-06-14T05:21:50;7.90;;;6.17;;
15412;SDS011;7805;49.554;7.632;2023-06-14T05:24:16;8.30;;;6.07;;
15412;SDS011;7805;49.554;7.632;2023-06-14T05:26:45;9.03;;;5.50;;
15412;SDS011;7805;49.554;7.632;2023-06-14T05:29:11;9.77;;;5.47;;
15412;SDS011;7805;49.554;7.632;2023-06-14T05:31:37;9.07;;;6.10;;
15412;SDS011;7805;49.554;7.632;2023-06-14T05:34:03;9.80;;;5.73;;
15412;SDS011;7805;49.554;7.632;2023-06-14T05:36:29;10.90;;;5.63;;
15412;SDS011;7805;49.554;7.632;2023-06-14T05:38:54;5.97;;;5.13;;
15412;SDS011;7805;49.554;7.632;2023-06-14T05:41:25;10.40;;;5.60;;
15412;SDS011;7805;49.554;7.632;2023-06-14T05:43:51;9.43;;;5.97;;
15412;SDS011;7805;49.554;7.632;2023-06-14T05:46:17;10.30;;;5.63;;
15412;SDS011;7805;49.554;7.632;2023-06-14T05:48:47;7.00;;;5.30;;
15412;SDS011;7805;49.554;7.632;2023-06-14T05:51:13;8.43;;;5.80;;
15412;SDS011;7805;49.554;7.632;2023-06-14T05:53:39;8.13;;;5.33;;
15412;SDS011;7805;49.554;7.632;2023-06-14T05:56:05;6.40;;;4.77;;
15412;SDS011;7805;49.554;7.632;2023-06-14T05:58:31;6.03;;;5.03;;
15412;SDS011;7805;49.554;7.632;2023-06-14T06:00:56;5.87;;;4.80;;
15412;SDS011;7805;49.554;7.632;2023-06-14T06:03:22;8.83;;;4.63;;
15412;SDS011;7805;49.554;7.632;2023-06-14T06:05:48;5.83;;;4.87;;
15412;SDS011;7805;49.554;7.632;2023-06-14T06:08:13;5.97;;;5.00;;
15412;SDS011;7805;49.554;7.632;2023-06-14T06:10:41;11.17;;;5.83;;
15412;SDS011;7805;49.554;7.632;2023-06-14T06:13:07;7.63;;;5.30;;
15412;SDS011;7805;49.554;7.632;2023-06-14T06:15:32;5.00;;;4.60;;
15412;SDS011;7805;49.554;7.632;2023-06-14T06:17:58;7.63;;;4.40;;
15412;SDS011;7805;49.554;7.632;2023-06-14T06:20:24;4.53;;;4.13;;
15412;SDS011;7805;49.554;7.632;2023-06-14T06:22:59;6.07;;;4.17;;
15412;SDS011;7805;49.554;7.632;2023-06-14T06:25:25;6.07;;;4.40;;
15412;SDS011;7805;49.554;7.632;2023-06-14T06:27:52;10.35;;;4.68;;
15412;SDS011;7805;49.554;7.632;2023-06-14T06:30:19;6.57;;;4.53;;
15412;SDS011;7805;49.554;7.632;2023-06-14T06:32:45;8.23;;;4.40;;
15412;SDS011;7805;49.554;7.632;2023-06-14T06:35:11;7.28;;;4.75;;
15412;SDS011;7805;49.554;7.632;2023-06-14T06:37:38;8.35;;;4.70;;
15412;SDS011;7805;49.554;7.632;2023-06-14T06:40:04;7.35;;;4.70;;
15412;SDS011;7805;49.554;7.632;2023-06-14T06:42:31;6.70;;;4.07;;
15412;SDS011;7805;49.554;7.632;2023-06-14T06:44:57;4.68;;;4.18;;
15412;SDS011;7805;49.554;7.632;2023-06-14T06:47:22;5.43;;;4.10;;
15412;SDS011;7805;49.554;7.632;2023-06-14T06:49:48;10.75;;;4.60;;
15412;SDS011;7805;49.554;7.632;2023-06-14T06:52:14;11.13;;;4.50;;
15412;SDS011;7805;49.554;7.632;2023-06-14T06:54:40;5.05;;;4.18;;
15412;SDS011;7805;49.554;7.632;2023-06-14T06:57:05;5.53;;;4.38;;
15412;SDS011;7805;49.554;7.632;2023-06-14T06:59:32;6.78;;;4.40;;
15412;SDS011;7805;49.554;7.632;2023-06-14T07:01:58;8.73;;;4.40;;
15412;SDS011;7805;49.554;7.632;2023-06-14T07:04:24;10.45;;;4.53;;
15412;SDS011;7805;49.554;7.632;2023-06-14T07:06:50;7.78;;;4.15;;
15412;SDS011;7805;49.554;7.632;2023-06-14T07:09:16;4.85;;;4.32;;
15412;SDS011;7805;49.554;7.632;2023-06-14T07:11:42;4.97;;;3.97;;
15412;SDS011;7805;49.554;7.632;2023-06-14T07:14:09;7.20;;;4.25;;
15412;SDS011;7805;49.554;7.632;2023-06-14T07:16:35;6.93;;;3.78;;
15412;SDS011;7805;49.554;7.632;2023-06-14T07:19:03;4.32;;;3.85;;
15412;SDS011;7805;49.554;7.632;2023-06-14T07:21:29;7.53;;;4.00;;
15412;SDS011;7805;49.554;7.632;2023-06-14T07:23:55;11.73;;;4.95;;
15412;SDS011;7805;49.554;7.632;2023-06-14T07:26:21;8.55;;;4.47;;
15412;SDS011;7805;49.554;7.632;2023-06-14T07:28:47;10.60;;;4.30;;
15412;SDS011;7805;49.554;7.632;2023-06-14T07:31:13;9.02;;;4.30;;
15412;SDS011;7805;49.554;7.632;2023-06-14T07:33:40;12.43;;;4.20;;
15412;SDS011;7805;49.554;7.632;2023-06-14T07:36:06;5.85;;;4.10;;
15412;SDS011;7805;49.554;7.632;2023-06-14T07:38:32;7.40;;;3.90;;
15412;SDS011;7805;49.554;7.632;2023-06-14T07:40:59;7.97;;;3.92;;
15412;SDS011;7805;49.554;7.632;2023-06-14T07:43:25;9.57;;;4.07;;
15412;SDS011;7805;49.554;7.632;2023-06-14T07:45:50;6.57;;;4.60;;
15412;SDS011;7805;49.554;7.632;2023-06-14T07:48:16;17.98;;;5.07;;
15412;SDS011;7805;49.554;7.632;2023-06-14T07:50:42;11.27;;;4.78;;
15412;SDS011;7805;49.554;7.632;2023-06-14T07:53:08;7.60;;;3.88;;
15412;SDS011;7805;49.554;7.632;2023-06-14T07:55:33;5.78;;;4.10;;
15412;SDS011;7805;49.554;7.632;2023-06-14T07:58:02;5.03;;;3.85;;
15412;SDS011;7805;49.554;7.632;2023-06-14T08:00:28;5.20;;;3.65;;
15412;SDS011;7805;49.554;7.632;2023-06-14T08:02:53;10.48;;;4.60;;
15412;SDS011;7805;49.554;7.632;2023-06-14T08:05:23;6.68;;;4.03;;
15412;SDS011;7805;49.554;7.632;2023-06-14T08:07:49;10.45;;;4.72;;
15412;SDS011;7805;49.554;7.632;2023-06-14T08:10:15;5.10;;;4.28;;
15412;SDS011;7805;49.554;7.632;2023-06-14T08:12:41;6.85;;;4.05;;
15412;SDS011;7805;49.554;7.632;2023-06-14T08:15:07;5.20;;;3.53;;
15412;SDS011;7805;49.554;7.632;2023-06-14T08:17:33;6.88;;;3.33;;
15412;SDS011;7805;49.554;7.632;2023-06-14T08:19:58;4.55;;;4.20;;
15412;SDS011;7805;49.554;7.632;2023-06-14T08:22:24;6.20;;;4.18;;
15412;SDS011;7805;49.554;7.632;2023-06-14T08:24:50;6.10;;;3.90;;
15412;SDS011;7805;49.554;7.632;2023-06-14T08:27:18;6.05;;;3.75;;
15412;SDS011;7805;49.554;7.632;2023-06-14T08:29:43;7.03;;;3.85;;
15412;SDS011;7805;49.554;7.632;2023-06-14T08:32:09;7.10;;;3.47;;
15412;SDS011;7805;49.554;7.632;2023-06-14T08:34:35;5.93;;;3.10;;
15412;SDS011;7805;49.554;7.632;2023-06-14T08:37:01;5.88;;;3.60;;
15412;SDS011;7805;49.554;7.632;2023-06-14T08:39:26;5.15;;;3.47;;
15412;SDS011;7805;49.554;7.632;2023-06-14T08:41:52;7.57;;;3.15;;
15412;SDS011;7805;49.554;7.632;2023-06-14T08:44:19;5.90;;;3.33;;
15412;SDS011;7805;49.554;7.632;2023-06-14T08:46:45;5.10;;;3.60;;
15412;SDS011;7805;49.554;7.632;2023-06-14T08:49:13;4.82;;;3.20;;
15412;SDS011;7805;49.554;7.632;2023-06-14T08:51:41;4.85;;;3.10;;
15412;SDS011;7805;49.554;7.632;2023-06-14T08:54:09;4.20;;;3.42;;
15412;SDS011;7805;49.554;7.632;2023-06-14T08:56:36;6.25;;;3.42;;
15412;SDS011;7805;49.554;7.632;2023-06-14T08:59:03;3.20;;;2.90;;
15412;SDS011;7805;49.554;7.632;2023-06-14T09:01:34;6.15;;;3.17;;
15412;SDS011;7805;49.554;7.632;2023-06-14T09:04:01;3.28;;;3.08;;
15412;SDS011;7805;49.554;7.632;2023-06-14T09:06:27;5.20;;;3.03;;
15412;SDS011;7805;49.554;7.632;2023-06-14T09:08:54;5.40;;;3.25;;
15412;SDS011;7805;49.554;7.632;2023-06-14T09:11:22;3.42;;;2.83;;
15412;SDS011;7805;49.554;7.632;2023-06-14T09:13:48;5.18;;;3.33;;
15412;SDS011;7805;49.554;7.632;2023-06-14T09:16:14;3.88;;;2.67;;
15412;SDS011;7805;49.554;7.632;2023-06-14T09:18:41;3.15;;;2.50;;
15412;SDS011;7805;49.554;7.632;2023-06-14T09:21:12;4.85;;;2.70;;
15412;SDS011;7805;49.554;7.632;2023-06-14T09:26:09;5.50;;;2.72;;
15412;SDS011;7805;49.554;7.632;2023-06-14T09:28:42;5.10;;;2.88;;
15412;SDS011;7805;49.554;7.632;2023-06-14T09:31:13;2.78;;;2.58;;
15412;SDS011;7805;49.554;7.632;2023-06-14T09:33:43;5.43;;;2.97;;
15412;SDS011;7805;49.554;7.632;2023-06-14T09:36:12;4.18;;;2.92;;
15412;SDS011;7805;49.554;7.632;2023-06-14T09:38:41;3.72;;;2.55;;
15412;SDS011;7805;49.554;7.632;2023-06-14T09:41:07;5.50;;;3.15;;
15412;SDS011;7805;49.554;7.632;2023-06-14T09:43:33;5.32;;;2.60;;
15412;SDS011;7805;49.554;7.632;2023-06-14T09:46:02;4.65;;;2.97;;
15412;SDS011;7805;49.554;7.632;2023-06-14T09:48:29;3.53;;;2.67;;
15412;SDS011;7805;49.554;7.632;2023-06-14T09:50:55;4.95;;;2.80;;
15412;SDS011;7805;49.554;7.632;2023-06-14T09:53:24;3.15;;;2.70;;
15412;SDS011;7805;49.554;7.632;2023-06-14T09:55:50;2.97;;;2.75;;
15412;SDS011;7805;49.554;7.632;2023-06-14T09:58:19;2.78;;;2.55;;
15412;SDS011;7805;49.554;7.632;2023-06-14T10:00:48;3.95;;;2.20;;
15412;SDS011;7805;49.554;7.632;2023-06-14T10:03:19;5.00;;;2.47;;
15412;SDS011;7805;49.554;7.632;2023-06-14T10:05:50;6.25;;;2.75;;
15412;SDS011;7805;49.554;7.632;2023-06-14T10:08:17;3.22;;;2.90;;
15412;SDS011;7805;49.554;7.632;2023-06-14T10:10:45;3.10;;;2.80;;
15412;SDS011;7805;49.554;7.632;2023-06-14T10:13:11;2.78;;;2.58;;
15412;SDS011;7805;49.554;7.632;2023-06-14T10:18:11;2.67;;;2.47;;
15412;SDS011;7805;49.554;7.632;2023-06-14T10:23:33;3.10;;;2.67;;
15412;SDS011;7805;49.554;7.632;2023-06-14T10:26:02;2.72;;;2.53;;
15412;SDS011;7805;49.554;7.632;2023-06-14T10:28:28;4.00;;;2.53;;
15412;SDS011;7805;49.554;7.632;2023-06-14T10:31:08;2.42;;;2.22;;
15412;SDS011;7805;49.554;7.632;2023-06-14T10:33:48;6.13;;;2.40;;
15412;SDS011;7805;49.554;7.632;2023-06-14T10:39:24;5.35;;;2.47;;
15412;SDS011;7805;49.554;7.632;2023-06-14T10:41:50;4.95;;;2.65;;
15412;SDS011;7805;49.554;7.632;2023-06-14T10:46:45;2.25;;;2.05;;
15412;SDS011;7805;49.554;7.632;2023-06-14T10:49:11;3.05;;;2.42;;
15412;SDS011;7805;49.554;7.632;2023-06-14T10:51:41;3.65;;;2.67;;
15412;SDS011;7805;49.554;7.632;2023-06-14T10:54:14;4.47;;;2.22;;
15412;SDS011;7805;49.554;7.632;2023-06-14T10:56:46;2.33;;;2.20;;
15412;SDS011;7805;49.554;7.632;2023-06-14T10:59:13;2.35;;;2.20;;
15412;SDS011;7805;49.554;7.632;2023-06-14T11:01:57;4.45;;;2.45;;
15412;SDS011;7805;49.554;7.632;2023-06-14T11:04:47;3.55;;;2.15;;
15412;SDS011;7805;49.554;7.632;2023-06-14T11:13:04;2.42;;;2.20;;
15412;SDS011;7805;49.554;7.632;2023-06-14T11:15:32;3.15;;;2.40;;
15412;SDS011;7805;49.554;7.632;2023-06-14T11:18:02;4.28;;;2.50;;
15412;SDS011;7805;49.554;7.632;2023-06-14T11:20:31;3.13;;;2.58;;
15412;SDS011;7805;49.554;7.632;2023-06-14T11:22:58;2.97;;;2.03;;
15412;SDS011;7805;49.554;7.632;2023-06-14T11:25:24;2.55;;;2.30;;
15412;SDS011;7805;49.554;7.632;2023-06-14T11:27:51;3.35;;;2.50;;
15412;SDS011;7805;49.554;7.632;2023-06-14T11:30:17;6.10;;;2.42;;
15412;SDS011;7805;49.554;7.632;2023-06-14T11:32:46;2.72;;;2.00;;
15412;SDS011;7805;49.554;7.632;2023-06-14T11:35:13;4.18;;;2.00;;
15412;SDS011;7805;49.554;7.632;2023-06-14T11:37:38;2.47;;;2.20;;
15412;SDS011;7805;49.554;7.632;2023-06-14T11:40:06;6.18;;;1.95;;
15412;SDS011;7805;49.554;7.632;2023-06-14T11:42:34;2.53;;;2.33;;
15412;SDS011;7805;49.554;7.632;2023-06-14T11:45:02;2.40;;;2.22;;
15412;SDS011;7805;49.554;7.632;2023-06-14T11:47:33;2.10;;;2.00;;
15412;SDS011;7805;49.554;7.632;2023-06-14T11:50:00;3.80;;;2.00;;
15412;SDS011;7805;49.554;7.632;2023-06-14T11:52:25;2.85;;;1.98;;
15412;SDS011;7805;49.554;7.632;2023-06-14T11:54:51;6.28;;;2.03;;
15412;SDS011;7805;49.554;7.632;2023-06-14T11:57:18;2.05;;;1.80;;
15412;SDS011;7805;49.554;7.632;2023-06-14T11:59:44;2.28;;;2.08;;
15412;SDS011;7805;49.554;7.632;2023-06-14T12:02:17;2.03;;;1.90;;
15412;SDS011;7805;49.554;7.632;2023-06-14T12:04:44;5.90;;;2.40;;
15412;SDS011;7805;49.554;7.632;2023-06-14T12:07:12;2.33;;;1.85;;
15412;SDS011;7805;49.554;7.632;2023-06-14T12:12:18;2.20;;;2.00;;
15412;SDS011;7805;49.554;7.632;2023-06-14T12:14:46;2.70;;;2.10;;
15412;SDS011;7805;49.554;7.632;2023-06-14T12:17:13;2.70;;;2.10;;
15412;SDS011;7805;49.554;7.632;2023-06-14T12:19:41;1.95;;;1.85;;
15412;SDS011;7805;49.554;7.632;2023-06-14T12:22:12;4.55;;;2.45;;
15412;SDS011;7805;49.554;7.632;2023-06-14T12:24:38;2.55;;;1.70;;
15412;SDS011;7805;49.554;7.632;2023-06-14T12:27:04;2.33;;;1.77;;
15412;SDS011;7805;49.554;7.632;2023-06-14T12:29:33;2.20;;;2.00;;
15412;SDS011;7805;49.554;7.632;2023-06-14T12:32:00;2.15;;;1.75;;
15412;SDS011;7805;49.554;7.632;2023-06-14T12:34:26;2.85;;;1.80;;
15412;SDS011;7805;49.554;7.632;2023-06-14T12:36:55;4.15;;;1.90;;
15412;SDS011;7805;49.554;7.632;2023-06-14T12:39:21;9.40;;;2.15;;
15412;SDS011;7805;49.554;7.632;2023-06-14T12:41:47;4.95;;;2.10;;
15412;SDS011;7805;49.554;7.632;2023-06-14T12:44:14;2.08;;;1.85;;
15412;SDS011;7805;49.554;7.632;2023-06-14T12:46:40;2.25;;;1.98;;
15412;SDS011;7805;49.554;7.632;2023-06-14T12:49:08;5.22;;;2.20;;
15412;SDS011;7805;49.554;7.632;2023-06-14T12:51:37;5.50;;;2.05;;
15412;SDS011;7805;49.554;7.632;2023-06-14T12:54:03;8.13;;;1.95;;
15412;SDS011;7805;49.554;7.632;2023-06-14T12:56:29;2.20;;;1.70;;
15412;SDS011;7805;49.554;7.632;2023-06-14T12:58:55;2.70;;;1.70;;
15412;SDS011;7805;49.554;7.632;2023-06-14T13:01:20;4.35;;;2.00;;
15412;SDS011;7805;49.554;7.632;2023-06-14T13:03:46;2.25;;;1.50;;
15412;SDS011;7805;49.554;7.632;2023-06-14T13:06:12;3.13;;;1.55;;
15412;SDS011;7805;49.554;7.632;2023-06-14T13:08:38;2.22;;;2.00;;
15412;SDS011;7805;49.554;7.632;2023-06-14T13:11:03;1.38;;;1.27;;
15412;SDS011;7805;49.554;7.632;2023-06-14T13:13:29;4.00;;;1.77;;
15412;SDS011;7805;49.554;7.632;2023-06-14T13:15:54;4.30;;;1.70;;
15412;SDS011;7805;49.554;7.632;2023-06-14T13:18:20;3.83;;;2.13;;
15412;SDS011;7805;49.554;7.632;2023-06-14T13:20:46;3.75;;;1.80;;
15412;SDS011;7805;49.554;7.632;2023-06-14T13:23:12;1.75;;;1.65;;
15412;SDS011;7805;49.554;7.632;2023-06-14T13:25:38;1.92;;;1.65;;
15412;SDS011;7805;49.554;7.632;2023-06-14T13:28:05;5.40;;;1.77;;
15412;SDS011;7805;49.554;7.632;2023-06-14T13:30:31;2.38;;;1.50;;
15412;SDS011;7805;49.554;7.632;2023-06-14T13:32:57;2.47;;;1.83;;
15412;SDS011;7805;49.554;7.632;2023-06-14T13:35:23;5.22;;;2.13;;
15412;SDS011;7805;49.554;7.632;2023-06-14T13:37:49;9.07;;;1.92;;
15412;SDS011;7805;49.554;7.632;2023-06-14T13:40:15;20.17;;;2.90;;
15412;SDS011;7805;49.554;7.632;2023-06-14T13:42:41;5.35;;;1.80;;
15412;SDS011;7805;49.554;7.632;2023-06-14T13:45:07;3.83;;;1.77;;
15412;SDS011;7805;49.554;7.632;2023-06-14T13:47:33;4.60;;;2.03;;
15412;SDS011;7805;49.554;7.632;2023-06-14T13:49:59;2.03;;;1.60;;
15412;SDS011;7805;49.554;7.632;2023-06-14T13:52:25;3.63;;;1.50;;
15412;SDS011;7805;49.554;7.632;2023-06-14T13:54:51;1.58;;;1.40;;
15412;SDS011;7805;49.554;7.632;2023-06-14T13:57:17;1.55;;;1.48;;
15412;SDS011;7805;49.554;7.632;2023-06-14T13:59:42;3.55;;;1.50;;
15412;SDS011;7805;49.554;7.632;2023-06-14T14:02:11;1.88;;;1.77;;
15412;SDS011;7805;49.554;7.632;2023-06-14T14:04:38;3.53;;;1.58;;
15412;SDS011;7805;49.554;7.632;2023-06-14T14:07:04;5.70;;;1.92;;
15412;SDS011;7805;49.554;7.632;2023-06-14T14:09:31;6.85;;;1.70;;
15412;SDS011;7805;49.554;7.632;2023-06-14T14:11:58;5.30;;;1.67;;
15412;SDS011;7805;49.554;7.632;2023-06-14T14:14:24;1.60;;;1.50;;
15412;SDS011;7805;49.554;7.632;2023-06-14T14:16:50;2.17;;;1.60;;
15412;SDS011;7805;49.554;7.632;2023-06-14T14:19:19;1.50;;;1.40;;
15412;SDS011;7805;49.554;7.632;2023-06-14T14:21:46;1.58;;;1.48;;
15412;SDS011;7805;49.554;7.632;2023-06-14T14:24:12;1.85;;;1.65;;
15412;SDS011;7805;49.554;7.632;2023-06-14T14:26:38;1.50;;;1.40;;
15412;SDS011;7805;49.554;7.632;2023-06-14T14:29:04;2.22;;;1.50;;
15412;SDS011;7805;49.554;7.632;2023-06-14T14:31:30;1.92;;;1.35;;
15412;SDS011;7805;49.554;7.632;2023-06-14T14:33:55;6.53;;;1.63;;
15412;SDS011;7805;49.554;7.632;2023-06-14T14:36:21;3.60;;;1.52;;
15412;SDS011;7805;49.554;7.632;2023-06-14T14:38:47;3.10;;;1.55;;
15412;SDS011;7805;49.554;7.632;2023-06-14T14:41:12;2.78;;;1.80;;
15412;SDS011;7805;49.554;7.632;2023-06-14T14:43:38;1.85;;;1.75;;
15412;SDS011;7805;49.554;7.632;2023-06-14T14:46:04;3.55;;;1.60;;
15412;SDS011;7805;49.554;7.632;2023-06-14T14:48:30;1.92;;;1.40;;
15412;SDS011;7805;49.554;7.632;2023-06-14T14:50:55;2.60;;;1.60;;
15412;SDS011;7805;49.554;7.632;2023-06-14T14:53:21;3.53;;;1.98;;
15412;SDS011;7805;49.554;7.632;2023-06-14T14:55:47;1.67;;;1.58;;
15412;SDS011;7805;49.554;7.632;2023-06-14T14:58:13;1.80;;;1.70;;
15412;SDS011;7805;49.554;7.632;2023-06-14T15:00:42;3.45;;;1.77;;
15412;SDS011;7805;49.554;7.632;2023-06-14T15:03:12;4.13;;;2.03;;
15412;SDS011;7805;49.554;7.632;2023-06-14T15:05:38;4.72;;;1.83;;
15412;SDS011;7805;49.554;7.632;2023-06-14T15:08:04;2.20;;;1.75;;
15412;SDS011;7805;49.554;7.632;2023-06-14T15:10:35;2.03;;;1.83;;
15412;SDS011;7805;49.554;7.632;2023-06-14T15:13:01;1.80;;;1.70;;
15412;SDS011;7805;49.554;7.632;2023-06-14T15:15:26;1.98;;;1.67;;
15412;SDS011;7805;49.554;7.632;2023-06-14T15:17:52;1.88;;;1.73;;
15412;SDS011;7805;49.554;7.632;2023-06-14T15:20:17;6.80;;;2.67;;
15412;SDS011;7805;49.554;7.632;2023-06-14T15:22:43;2.55;;;1.83;;
15412;SDS011;7805;49.554;7.632;2023-06-14T15:25:09;2.38;;;2.22;;